CheckWX is a tool to help pilots better visualize weather data.  It is not intended as a substitute for an official pre-flight weather briefing.

21:27:57 UTC

KPSK METAR
New River Valley Airport
Dublin, Virginia, USA
Current

33 mins ago

KPSK 232055Z AUTO 24008G14KT 10SM SCT049 BKN055 OVC065 28/18 A3019 RMK AO2 T02760180
Observed
May-23 @ 20:55 UTC
Wind
  • 240° at 8 KTS
  • Gusting to 14 KTS
Visibility
10 SM
Flight Rules
VFR
Cloud Levels
  • Scattered at 4,900' AGL
  • Broken at 5,500' AGL
  • Overcast at 6,500' AGL
Temperature
28°C / 82°F
Dewpoint
18°C / 64°F
Heat Index
29°C / 84°F
Humidity
55%
Altimeter
30.19" Hg
Pressure
1022.32 hPa
Previous

53 mins ago

KPSK 232035Z AUTO 26008KT 10SM SCT049 SCT060 28/18 A3020 RMK AO2 T02800177
Observed
May-23 @ 20:35 UTC
Wind
  • 260° at 8 KTS
Visibility
10 SM
Flight Rules
VFR
Cloud Levels
  • Scattered at 4,900' AGL
  • Scattered at 6,000' AGL
Temperature
28°C / 82°F
Dewpoint
18°C / 64°F
Heat Index
29°C / 84°F
Humidity
55%
Altimeter
30.2" Hg
Pressure
1022.72 hPa
Previous

2 hours ago

KPSK 231915Z AUTO 27008G15KT 10SM CLR 28/17 A3024 RMK AO2 T02830166
Observed
May-23 @ 19:15 UTC
Wind
  • 270° at 8 KTS
  • Gusting to 15 KTS
Visibility
10 SM
Flight Rules
VFR
Cloud Levels
  • Clear skies
Temperature
28°C / 82°F
Dewpoint
17°C / 63°F
Heat Index
28°C / 83°F
Humidity
51%
Altimeter
30.24" Hg
Pressure
1024.02 hPa